createdAt,value
2019-03-30T00:01:00.992Z,28.85
2019-03-30T00:03:32.748Z,28.30
2019-03-30T00:06:04.123Z,25.55
2019-03-30T00:08:37.358Z,26.70
2019-03-30T00:11:08.575Z,26.55
2019-03-30T00:13:39.891Z,26.00
2019-03-30T00:16:11.228Z,25.40
2019-03-30T00:18:43.566Z,30.62
2019-03-30T00:21:15.983Z,26.68
2019-03-30T00:23:48.154Z,25.45
2019-03-30T00:26:19.414Z,25.02
2019-03-30T00:28:52.114Z,23.57
2019-03-30T00:31:23.344Z,23.75
2019-03-30T00:33:54.577Z,24.27
2019-03-30T00:36:25.809Z,22.87
2019-03-30T00:38:58.695Z,22.87
2019-03-30T00:41:29.895Z,24.23
2019-03-30T00:44:01.124Z,28.10
2019-03-30T00:46:32.636Z,25.30
2019-03-30T00:49:03.946Z,23.95
2019-03-30T00:51:35.290Z,23.83
2019-03-30T00:54:06.596Z,23.50
2019-03-30T00:56:37.885Z,24.60
2019-03-30T00:59:09.009Z,27.02
2019-03-30T01:01:40.369Z,25.52
2019-03-30T01:04:12.727Z,27.05
2019-03-30T01:06:44.048Z,30.75
2019-03-30T01:09:15.369Z,30.50
2019-03-30T01:11:46.720Z,31.27
2019-03-30T01:14:20.099Z,30.57
2019-03-30T01:16:51.379Z,28.52
2019-03-30T01:19:22.724Z,31.50
2019-03-30T01:21:56.232Z,32.73
2019-03-30T01:24:27.167Z,27.82
2019-03-30T01:26:58.965Z,27.67
2019-03-30T01:29:30.270Z,23.47
2019-03-30T01:32:02.620Z,21.90
2019-03-30T01:34:35.996Z,24.55
2019-03-30T01:37:07.400Z,26.85
2019-03-30T01:39:38.706Z,22.62
2019-03-30T01:42:10.082Z,22.65
2019-03-30T01:44:41.418Z,24.30
2019-03-30T01:47:16.106Z,24.50
2019-03-30T01:49:47.450Z,24.63
2019-03-30T01:52:18.816Z,24.02
2019-03-30T01:54:50.141Z,24.25
2019-03-30T01:57:21.467Z,22.58
2019-03-30T01:59:53.723Z,22.93
2019-03-30T02:02:26.032Z,23.38
2019-03-30T02:04:57.419Z,22.52
2019-03-30T02:07:28.824Z,22.40
2019-03-30T02:10:00.380Z,21.93
2019-03-30T02:12:31.670Z,23.47
2019-03-30T02:15:03.035Z,23.87
2019-03-30T02:17:34.366Z,22.05
2019-03-30T02:20:07.607Z,22.27
2019-03-30T02:22:39.997Z,21.33
2019-03-30T02:25:11.223Z,21.77
2019-03-30T02:27:42.514Z,22.05
2019-03-30T02:30:13.897Z,22.17
2019-03-30T02:32:45.241Z,22.62
2019-03-30T02:35:18.912Z,21.75
2019-03-30T02:37:50.472Z,22.07
2019-03-30T02:40:23.093Z,22.42
2019-03-30T02:42:54.418Z,21.17
2019-03-30T02:45:27.970Z,22.32
2019-03-30T02:48:00.422Z,25.35
2019-03-30T02:50:47.767Z,26.90
2019-03-30T02:53:04.847Z,30.82
2019-03-30T02:55:38.243Z,28.27
2019-03-30T02:58:09.497Z,25.65
2019-03-30T03:00:40.809Z,26.57
2019-03-30T03:03:12.092Z,32.98
2019-03-30T03:05:43.374Z,32.25
2019-03-30T03:08:14.710Z,29.02
2019-03-30T03:10:46.010Z,30.08
2019-03-30T03:13:17.303Z,30.57
2019-03-30T03:15:49.062Z,30.52
2019-03-30T03:18:22.395Z,31.65
2019-03-30T03:21:07.194Z,32.98
2019-03-30T03:23:28.626Z,31.93
2019-03-30T03:25:59.951Z,33.13
2019-03-30T03:28:31.246Z,33.50
2019-03-30T03:31:02.591Z,32.73
2019-03-30T03:33:35.057Z,33.10
2019-03-30T03:36:06.378Z,29.55
2019-03-30T03:38:38.785Z,29.70
2019-03-30T03:41:10.125Z,27.30
2019-03-30T03:43:41.411Z,27.55
2019-03-30T03:46:12.777Z,27.67
2019-03-30T03:48:44.010Z,25.40
2019-03-30T03:51:25.781Z,25.92
2019-03-30T03:53:48.343Z,25.52
2019-03-30T03:56:20.042Z,25.17
2019-03-30T03:58:51.149Z,25.55
2019-03-30T04:01:22.498Z,27.02
2019-03-30T04:03:54.889Z,26.52
2019-03-30T04:06:26.182Z,26.50
2019-03-30T04:08:57.806Z,29.20
2019-03-30T04:11:29.052Z,28.10
2019-03-30T04:14:01.062Z,27.30
2019-03-30T04:16:32.421Z,28.57
2019-03-30T04:19:03.715Z,29.02
2019-03-30T04:21:44.256Z,30.30
2019-03-30T04:24:09.069Z,29.98
2019-03-30T04:26:41.377Z,32.90
2019-03-30T04:29:12.676Z,31.73
2019-03-30T04:31:44.008Z,32.78
2019-03-30T04:34:15.397Z,31.17
2019-03-30T04:36:46.598Z,32.78
2019-03-30T04:39:19.496Z,39.40
2019-03-30T04:41:50.813Z,38.65
2019-03-30T04:44:22.155Z,42.48
2019-03-30T04:46:53.481Z,42.98
2019-03-30T04:49:24.851Z,42.70
2019-03-30T04:51:57.795Z,43.60
2019-03-30T04:54:29.219Z,42.85
2019-03-30T04:57:03.401Z,42.05
2019-03-30T04:59:35.674Z,42.65
2019-03-30T05:02:08.610Z,40.98
2019-03-30T05:04:40.831Z,41.40
2019-03-30T05:07:12.219Z,42.38
2019-03-30T05:09:43.524Z,41.25
2019-03-30T05:12:14.882Z,41.13
2019-03-30T05:14:46.213Z,39.58
2019-03-30T05:17:18.000Z,40.80
2019-03-30T05:19:49.323Z,38.80
2019-03-30T05:22:20.632Z,40.17
2019-03-30T05:24:51.986Z,40.58
2019-03-30T05:27:23.398Z,40.50
2019-03-30T05:29:54.925Z,39.50
2019-03-30T05:32:26.213Z,42.55
2019-03-30T05:34:57.541Z,40.83
2019-03-30T05:37:28.941Z,35.33
2019-03-30T05:40:00.373Z,34.18
2019-03-30T05:42:31.687Z,33.00
2019-03-30T05:45:03.029Z,31.93
2019-03-30T05:47:35.395Z,30.40
2019-03-30T05:50:07.144Z,29.40
2019-03-30T05:52:39.699Z,27.60
2019-03-30T05:55:12.219Z,27.65
2019-03-30T05:57:43.912Z,27.27
2019-03-30T06:00:16.782Z,26.97
2019-03-30T06:02:48.195Z,25.35
2019-03-30T06:05:21.698Z,25.82
2019-03-30T06:07:52.987Z,26.35
2019-03-30T06:10:24.308Z,25.88
2019-03-30T06:12:57.073Z,26.73
2019-03-30T06:15:28.318Z,26.23
2019-03-30T06:18:00.832Z,24.82
2019-03-30T06:20:32.157Z,26.37
2019-03-30T06:23:03.498Z,26.02
2019-03-30T06:25:35.569Z,25.05
2019-03-30T06:28:06.900Z,26.60
2019-03-30T06:30:40.761Z,25.68
2019-03-30T06:33:12.122Z,27.20
2019-03-30T06:35:43.433Z,25.92
2019-03-30T06:38:14.739Z,25.60
2019-03-30T06:40:46.098Z,25.95
2019-03-30T06:43:17.462Z,27.00
2019-03-30T06:45:48.827Z,26.52
2019-03-30T06:48:20.270Z,26.65
2019-03-30T06:50:51.623Z,27.42
2019-03-30T06:53:23.099Z,25.80
2019-03-30T06:55:55.457Z,26.12
2019-03-30T06:58:26.812Z,25.97
2019-03-30T07:00:58.257Z,25.50
2019-03-30T07:03:29.633Z,26.07
2019-03-30T07:06:01.010Z,26.17
2019-03-30T07:08:32.261Z,25.43
2019-03-30T07:11:03.614Z,26.17
2019-03-30T07:13:35.999Z,25.70
2019-03-30T07:16:07.512Z,24.70
2019-03-30T07:18:38.854Z,24.50
2019-03-30T07:21:11.185Z,23.30
2019-03-30T07:23:42.563Z,23.75
2019-03-30T07:26:13.983Z,22.52
2019-03-30T07:28:47.089Z,21.50
2019-03-30T07:31:18.490Z,21.23
2019-03-30T07:33:49.962Z,21.68
2019-03-30T07:36:21.245Z,22.77
2019-03-30T07:38:52.580Z,24.00
2019-03-30T07:41:25.019Z,20.50
2019-03-30T07:43:56.348Z,20.65
2019-03-30T07:46:27.679Z,20.32
2019-03-30T07:48:59.424Z,24.25
2019-03-30T07:51:33.499Z,19.65
2019-03-30T07:54:04.718Z,19.65
2019-03-30T07:56:36.143Z,19.35
2019-03-30T07:59:07.452Z,19.02
2019-03-30T08:01:39.279Z,20.60
2019-03-30T08:04:10.687Z,18.75
2019-03-30T08:06:53.566Z,18.85
2019-03-30T08:09:24.689Z,18.67
2019-03-30T08:11:57.422Z,17.20
2019-03-30T08:14:28.850Z,17.87
2019-03-30T08:17:00.216Z,17.80
2019-03-30T08:19:31.519Z,17.52
2019-03-30T08:22:02.957Z,16.62
2019-03-30T08:24:35.576Z,16.45
2019-03-30T08:27:11.094Z,16.42
2019-03-30T08:29:51.023Z,15.88
2019-03-30T08:32:22.671Z,15.28
2019-03-30T08:34:55.976Z,15.63
2019-03-30T08:37:30.805Z,14.38
2019-03-30T08:40:03.933Z,15.28
2019-03-30T08:42:46.627Z,14.85
2019-03-30T08:45:21.632Z,15.93
2019-03-30T08:47:53.641Z,16.73
2019-03-30T08:50:28.380Z,16.25
2019-03-30T08:53:02.777Z,16.42
2019-03-30T08:55:34.394Z,131.55
2019-03-30T08:58:09.804Z,83.52
2019-03-30T09:00:43.487Z,22.90
2019-03-30T09:03:20.187Z,47.30
2019-03-30T09:05:51.728Z,18.20
2019-03-30T09:08:24.277Z,24.63
2019-03-30T09:10:56.752Z,29.20
2019-03-30T09:13:28.223Z,29.92
2019-03-30T09:15:59.596Z,19.55
2019-03-30T09:18:31.083Z,82.62
2019-03-30T09:21:02.456Z,20.08
2019-03-30T09:23:33.907Z,33.88
2019-03-30T09:26:06.383Z,19.85
2019-03-30T09:28:37.712Z,24.60
2019-03-30T09:31:09.148Z,26.33
2019-03-30T09:33:40.496Z,20.08
2019-03-30T09:36:11.942Z,17.15
2019-03-30T09:38:46.257Z,18.45
2019-03-30T09:41:17.558Z,18.15
2019-03-30T09:43:48.893Z,19.32
2019-03-30T09:46:21.347Z,18.60
2019-03-30T09:48:56.541Z,17.55
2019-03-30T09:51:29.246Z,15.90
2019-03-30T09:54:23.161Z,16.77
2019-03-30T09:56:44.778Z,17.75
2019-03-30T09:59:16.526Z,19.48
2019-03-30T10:01:53.736Z,20.60
2019-03-30T10:04:28.272Z,18.77
2019-03-30T10:07:00.759Z,19.12
2019-03-30T10:09:32.222Z,16.00
2019-03-30T10:12:03.892Z,50.70
2019-03-30T10:14:35.332Z,60.12
2019-03-30T10:17:08.054Z,28.80
2019-03-30T10:19:39.459Z,27.75
2019-03-30T10:22:12.028Z,52.35
2019-03-30T10:24:44.428Z,88.67
2019-03-30T10:27:15.913Z,111.40
2019-03-30T10:29:51.028Z,21.95
2019-03-30T10:32:26.843Z,20.80
2019-03-30T10:35:01.079Z,18.73
2019-03-30T10:37:35.342Z,17.30
2019-03-30T10:40:08.443Z,30.80
2019-03-30T10:42:39.994Z,47.10
2019-03-30T10:45:11.513Z,15.53
2019-03-30T10:47:42.923Z,19.48
2019-03-30T10:50:16.363Z,30.40
2019-03-30T10:52:47.896Z,84.70
2019-03-30T10:55:19.320Z,16.60
2019-03-30T10:57:50.694Z,17.30
2019-03-30T11:00:40.679Z,15.23
2019-03-30T11:03:13.268Z,15.10
2019-03-30T11:05:44.772Z,14.13
2019-03-30T11:08:16.382Z,14.25
2019-03-30T11:10:49.361Z,15.13
2019-03-30T11:13:21.824Z,15.63
2019-03-30T11:15:53.382Z,15.98
2019-03-30T11:18:25.875Z,14.73
2019-03-30T11:20:57.317Z,16.12
2019-03-30T11:23:28.707Z,15.40
2019-03-30T11:26:00.125Z,15.65
2019-03-30T11:28:31.511Z,14.95
2019-03-30T11:31:05.370Z,22.05
2019-03-30T11:33:36.135Z,17.02
2019-03-30T11:36:07.594Z,17.17
2019-03-30T11:38:39.998Z,17.87
2019-03-30T11:41:11.341Z,16.77
2019-03-30T11:43:42.741Z,16.95
2019-03-30T11:46:14.313Z,17.17
2019-03-30T11:48:45.810Z,15.48
2019-03-30T11:51:17.219Z,17.92
2019-03-30T11:53:49.711Z,20.72
2019-03-30T11:56:23.647Z,14.93
2019-03-30T11:58:56.098Z,18.55
2019-03-30T12:01:28.919Z,22.40
2019-03-30T12:04:01.661Z,16.27
2019-03-30T12:06:35.285Z,16.20
2019-03-30T12:09:08.409Z,16.93
2019-03-30T12:11:40.847Z,16.75
2019-03-30T12:14:13.537Z,16.12
2019-03-30T12:16:45.104Z,16.32
2019-03-30T12:19:16.470Z,15.72
2019-03-30T12:21:47.846Z,16.10
2019-03-30T12:24:20.231Z,16.85
2019-03-30T12:26:51.708Z,18.77
2019-03-30T12:29:24.143Z,18.32
2019-03-30T12:31:55.501Z,19.35
2019-03-30T12:34:26.946Z,18.23
2019-03-30T12:36:58.290Z,18.98
2019-03-30T12:39:29.685Z,16.77
2019-03-30T12:42:03.407Z,16.62
2019-03-30T12:44:35.913Z,17.65
2019-03-30T12:47:10.220Z,17.35
2019-03-30T12:49:45.214Z,18.37
2019-03-30T12:52:16.658Z,16.45
2019-03-30T12:54:48.018Z,50.58
2019-03-30T12:57:19.778Z,30.52
2019-03-30T12:59:52.320Z,16.55
2019-03-30T13:02:26.409Z,15.58
2019-03-30T13:04:57.896Z,16.75
2019-03-30T13:07:32.129Z,16.20
2019-03-30T13:10:06.411Z,17.93
2019-03-30T13:12:39.397Z,16.10
2019-03-30T13:15:10.741Z,16.12
2019-03-30T13:17:42.034Z,16.67
2019-03-30T13:20:16.698Z,17.37
2019-03-30T13:22:48.074Z,17.77
2019-03-30T13:25:19.591Z,16.60
2019-03-30T13:27:53.415Z,18.10
2019-03-30T13:30:24.126Z,16.73
2019-03-30T13:32:55.438Z,16.67
2019-03-30T13:35:26.819Z,16.48
2019-03-30T13:37:58.366Z,15.80
2019-03-30T13:40:31.320Z,17.35
2019-03-30T13:43:04.655Z,19.27
2019-03-30T13:45:36.011Z,25.48
2019-03-30T13:48:11.728Z,22.02
2019-03-30T13:50:43.420Z,16.75
2019-03-30T13:53:14.855Z,16.00
2019-03-30T13:55:46.332Z,15.60
2019-03-30T13:58:17.677Z,15.38
2019-03-30T14:00:49.041Z,15.95
2019-03-30T14:03:20.516Z,18.40
2019-03-30T14:05:51.823Z,22.37
2019-03-30T14:08:23.138Z,15.23
2019-03-30T14:10:56.507Z,33.95
2019-03-30T14:13:27.969Z,17.30
2019-03-30T14:15:59.961Z,18.65
2019-03-30T14:18:31.360Z,18.57
2019-03-30T14:21:04.976Z,17.95
2019-03-30T14:23:37.383Z,17.98
2019-03-30T14:26:08.714Z,18.23
2019-03-30T14:28:40.683Z,17.85
2019-03-30T14:31:13.273Z,18.50
2019-03-30T14:33:44.720Z,17.82
2019-03-30T14:36:17.215Z,18.05
2019-03-30T14:38:50.100Z,17.12
2019-03-30T14:41:21.567Z,17.45
2019-03-30T14:43:52.952Z,17.80
2019-03-30T14:46:24.398Z,18.52
2019-03-30T14:48:57.563Z,20.37
2019-03-30T14:51:28.961Z,21.17
2019-03-30T14:54:00.324Z,20.68
2019-03-30T14:56:44.989Z,20.68
2019-03-30T14:59:10.388Z,20.00
2019-03-30T15:01:44.203Z,21.50
2019-03-30T15:04:16.094Z,20.35
2019-03-30T15:06:50.891Z,19.70
2019-03-30T15:09:28.322Z,19.45
2019-03-30T15:12:03.256Z,20.17
2019-03-30T15:14:40.387Z,19.87
2019-03-30T15:17:12.215Z,22.05
2019-03-30T15:19:47.608Z,20.97
2019-03-30T15:22:20.681Z,20.77
2019-03-30T15:24:52.324Z,21.60
2019-03-30T15:27:29.468Z,21.60
2019-03-30T15:32:44.492Z,21.85
2019-03-30T15:35:17.320Z,21.95
2019-03-30T15:37:48.756Z,20.52
2019-03-30T15:40:23.303Z,21.07
2019-03-30T15:43:00.691Z,18.65
2019-03-30T15:45:36.849Z,20.12
2019-03-30T15:48:08.835Z,21.07
2019-03-30T15:50:41.731Z,20.57
2019-03-30T15:53:13.151Z,21.33
2019-03-30T15:55:44.677Z,21.23
2019-03-30T15:58:17.057Z,21.12
2019-03-30T16:00:49.782Z,21.27
2019-03-30T16:03:21.393Z,22.80
2019-03-30T16:05:52.746Z,23.92
2019-03-30T16:08:24.219Z,25.85
2019-03-30T16:10:55.684Z,23.75
2019-03-30T16:13:27.055Z,23.87
2019-03-30T16:15:59.004Z,23.85
2019-03-30T16:18:32.540Z,23.45
2019-03-30T16:21:05.921Z,29.90
2019-03-30T16:23:37.860Z,22.30
2019-03-30T16:26:09.510Z,23.42
2019-03-30T16:28:46.169Z,23.02
2019-03-30T16:31:18.039Z,23.12
2019-03-30T16:33:50.280Z,22.32
2019-03-30T16:36:29.206Z,25.40
2019-03-30T16:39:00.565Z,26.40
2019-03-30T16:41:32.640Z,25.68
2019-03-30T16:44:08.612Z,27.80
2019-03-30T16:46:39.956Z,28.30
2019-03-30T16:49:11.395Z,28.62
2019-03-30T16:51:42.953Z,30.77
2019-03-30T16:54:14.228Z,32.23
2019-03-30T16:56:46.592Z,29.12
2019-03-30T16:59:17.929Z,28.20
2019-03-30T17:01:52.505Z,25.90
2019-03-30T17:04:25.571Z,26.00
2019-03-30T17:06:57.198Z,26.95
2019-03-30T17:09:28.541Z,27.02
2019-03-30T17:12:03.681Z,28.05
2019-03-30T17:14:46.913Z,26.70
2019-03-30T17:17:21.165Z,26.42
2019-03-30T17:19:58.536Z,28.42
2019-03-30T17:22:31.005Z,28.32
2019-03-30T17:25:02.416Z,28.85
2019-03-30T17:27:36.908Z,30.32
2019-03-30T17:30:11.950Z,27.40
2019-03-30T17:32:46.851Z,29.65
2019-03-30T17:35:21.010Z,29.02
2019-03-30T17:37:52.418Z,27.35
2019-03-30T17:40:23.911Z,28.75
2019-03-30T17:42:55.306Z,28.02
2019-03-30T17:45:26.752Z,27.10
2019-03-30T17:47:58.061Z,27.42
2019-03-30T17:50:29.506Z,28.35
2019-03-30T17:53:00.852Z,26.87
2019-03-30T17:55:34.392Z,27.27
2019-03-30T17:58:13.377Z,26.90
2019-03-30T18:00:51.618Z,27.95
2019-03-30T18:03:28.692Z,28.45
2019-03-30T18:06:03.004Z,29.18
2019-03-30T18:08:34.347Z,27.75
2019-03-30T18:11:05.596Z,28.42
2019-03-30T18:13:37.115Z,31.35
2019-03-30T18:16:09.766Z,30.90
2019-03-30T18:18:41.108Z,34.00
2019-03-30T18:21:13.514Z,34.10
2019-03-30T18:23:47.481Z,36.50
2019-03-30T18:26:17.775Z,31.65
2019-03-30T18:28:49.076Z,33.88
2019-03-30T18:31:20.613Z,36.73
2019-03-30T18:33:56.817Z,37.40
2019-03-30T18:36:30.185Z,37.70
2019-03-30T18:39:09.339Z,37.63
2019-03-30T18:41:36.149Z,39.05
2019-03-30T18:44:07.507Z,39.98
2019-03-30T18:46:42.814Z,38.60
2019-03-30T18:49:14.213Z,39.73
2019-03-30T18:51:48.769Z,41.18
2019-03-30T18:56:57.593Z,37.98
2019-03-30T18:59:25.264Z,37.13
2019-03-30T19:01:57.696Z,38.58
2019-03-30T19:04:28.944Z,37.90
2019-03-30T19:07:00.874Z,36.98
2019-03-30T19:09:34.291Z,39.30
2019-03-30T19:12:05.687Z,38.17
2019-03-30T19:14:36.988Z,40.12
2019-03-30T19:17:08.332Z,39.63
2019-03-30T19:19:39.742Z,39.25
2019-03-30T19:22:11.097Z,40.15
2019-03-30T19:24:42.485Z,40.05
2019-03-30T19:27:13.801Z,42.58
2019-03-30T19:29:45.145Z,41.85
2019-03-30T19:32:16.478Z,41.83
2019-03-30T19:34:47.776Z,42.23
2019-03-30T19:37:19.105Z,42.50
2019-03-30T19:39:50.423Z,43.02
2019-03-30T19:42:22.272Z,41.60
2019-03-30T19:44:53.582Z,44.18
2019-03-30T19:47:24.926Z,41.75
2019-03-30T19:49:56.236Z,45.95
2019-03-30T19:52:39.217Z,46.60
2019-03-30T19:55:00.590Z,47.48
2019-03-30T19:57:31.901Z,46.90
2019-03-30T20:00:04.800Z,46.98
2019-03-30T20:02:35.983Z,48.28
2019-03-30T20:05:07.177Z,49.55
2019-03-30T20:07:38.494Z,50.70
2019-03-30T20:10:09.792Z,50.30
2019-03-30T20:12:40.979Z,50.60
2019-03-30T20:15:13.337Z,52.40
2019-03-30T20:17:44.643Z,52.53
2019-03-30T20:20:15.953Z,52.88
2019-03-30T20:22:50.845Z,51.35
2019-03-30T20:25:25.790Z,52.38
2019-03-30T20:27:56.032Z,54.75
2019-03-30T20:30:27.310Z,51.70
2019-03-30T20:32:58.591Z,48.13
2019-03-30T20:35:29.946Z,50.33
2019-03-30T20:38:01.226Z,48.58
2019-03-30T20:40:32.499Z,49.70
2019-03-30T20:43:03.838Z,48.98
2019-03-30T20:45:35.149Z,49.38
2019-03-30T20:48:07.679Z,50.15
2019-03-30T20:50:39.880Z,49.98
2019-03-30T20:53:11.195Z,47.45
2019-03-30T20:55:42.542Z,48.38
2019-03-30T20:58:13.896Z,49.25
2019-03-30T21:00:45.234Z,49.70
2019-03-30T21:03:17.609Z,50.55
2019-03-30T21:05:48.916Z,50.65
2019-03-30T21:08:20.193Z,48.15
2019-03-30T21:10:51.508Z,50.10
2019-03-30T21:13:22.838Z,48.73
2019-03-30T21:15:59.796Z,51.58
2019-03-30T21:18:31.128Z,53.42
2019-03-30T21:21:03.936Z,52.70
2019-03-30T21:23:35.261Z,53.17
2019-03-30T21:26:07.555Z,54.33
2019-03-30T21:28:38.907Z,54.30
2019-03-30T21:31:11.359Z,52.43
2019-03-30T21:33:42.791Z,50.92
2019-03-30T21:36:15.201Z,51.73
2019-03-30T21:38:47.475Z,54.15
2019-03-30T21:41:18.762Z,54.05
2019-03-30T21:43:50.163Z,55.65
2019-03-30T21:46:21.479Z,55.73
2019-03-30T21:48:52.821Z,58.05
2019-03-30T21:51:24.180Z,58.50
2019-03-30T21:53:55.406Z,63.70
2019-03-30T21:56:26.614Z,63.45
2019-03-30T21:58:57.949Z,63.58
2019-03-30T22:01:29.214Z,62.08
2019-03-30T22:04:00.501Z,61.05
2019-03-30T22:06:31.811Z,59.67
2019-03-30T22:09:05.588Z,61.60
2019-03-30T22:11:36.914Z,63.02
2019-03-30T22:14:09.878Z,60.67
2019-03-30T22:16:41.119Z,57.45
2019-03-30T22:19:12.757Z,59.53
2019-03-30T22:21:44.073Z,59.40
2019-03-30T22:24:15.530Z,59.95
2019-03-30T22:26:46.909Z,61.30
2019-03-30T22:29:18.239Z,63.50
2019-03-30T22:31:50.642Z,63.80
2019-03-30T22:34:22.009Z,62.85
2019-03-30T22:36:53.318Z,65.45
2019-03-30T22:39:24.653Z,78.12
2019-03-30T22:41:55.945Z,75.70
2019-03-30T22:44:27.407Z,81.53
2019-03-30T22:46:58.739Z,80.35
2019-03-30T22:49:30.088Z,78.78
2019-03-30T22:52:01.406Z,76.47
2019-03-30T22:54:32.765Z,75.75
2019-03-30T22:57:04.036Z,73.50
2019-03-30T22:59:35.427Z,70.37
2019-03-30T23:02:06.760Z,68.07
2019-03-30T23:04:38.074Z,75.60
2019-03-30T23:07:09.396Z,71.85
2019-03-30T23:09:40.689Z,78.02
2019-03-30T23:12:11.983Z,74.65
2019-03-30T23:14:43.334Z,86.63
2019-03-30T23:17:14.685Z,84.45
2019-03-30T23:19:46.009Z,85.95
2019-03-30T23:22:17.338Z,81.40
2019-03-30T23:24:48.655Z,84.03
2019-03-30T23:27:20.026Z,80.60
2019-03-30T23:29:52.784Z,76.28
2019-03-30T23:32:27.173Z,76.70
2019-03-30T23:34:58.469Z,77.53
2019-03-30T23:37:29.728Z,77.22
2019-03-30T23:40:02.437Z,79.80
2019-03-30T23:42:33.753Z,79.72
2019-03-30T23:45:05.666Z,79.00
2019-03-30T23:47:36.979Z,75.10
2019-03-30T23:50:08.738Z,79.15
2019-03-30T23:52:40.298Z,75.62
2019-03-30T23:55:11.588Z,78.65
2019-03-30T23:57:42.895Z,73.97
